createdAt,value
2022-09-04T00:02:27.287Z,100.00
2022-09-04T00:04:59.889Z,100.00
2022-09-04T00:08:01.615Z,100.00
2022-09-04T00:10:40.178Z,100.00
2022-09-04T00:13:23.990Z,100.00
2022-09-04T00:16:05.886Z,100.00
2022-09-04T00:18:37.177Z,100.00
2022-09-04T00:21:21.461Z,100.00
2022-09-04T00:23:55.775Z,100.00
2022-09-04T00:26:46.415Z,100.00
2022-09-04T00:29:22.247Z,100.00
2022-09-04T00:32:01.914Z,100.00
2022-09-04T00:34:41.484Z,100.00
2022-09-04T00:37:13.225Z,100.00
2022-09-04T00:39:48.341Z,100.00
2022-09-04T00:42:38.726Z,100.00
2022-09-04T00:45:23.063Z,100.00
2022-09-04T00:48:10.949Z,100.00
2022-09-04T00:50:54.871Z,100.00
2022-09-04T00:53:44.594Z,100.00
2022-09-04T00:56:27.385Z,100.00
2022-09-04T00:59:24.594Z,100.00
2022-09-04T01:01:56.039Z,100.00
2022-09-04T01:04:29.525Z,100.00
2022-09-04T01:06:56.070Z,100.00
2022-09-04T01:09:37.984Z,100.00
2022-09-04T01:12:25.196Z,100.00
2022-09-04T01:15:19.526Z,100.00
2022-09-04T01:18:06.571Z,100.00
2022-09-04T01:20:51.884Z,100.00
2022-09-04T01:23:34.660Z,100.00
2022-09-04T01:26:11.690Z,100.00
2022-09-04T01:29:15.514Z,100.00
2022-09-04T01:32:01.573Z,100.00
2022-09-04T01:34:47.117Z,100.00
2022-09-04T01:37:45.327Z,100.00
2022-09-04T01:40:39.075Z,100.00
2022-09-04T01:43:14.530Z,100.00
2022-09-04T01:46:01.775Z,100.00
2022-09-04T01:48:34.469Z,100.00
2022-09-04T01:51:08.255Z,100.00
2022-09-04T01:53:40.337Z,100.00
2022-09-04T01:56:17.132Z,100.00
2022-09-04T01:58:48.194Z,100.00
2022-09-04T02:01:39.422Z,100.00
2022-09-04T02:04:12.738Z,100.00
2022-09-04T02:06:54.577Z,100.00
2022-09-04T02:09:30.437Z,100.00
2022-09-04T02:12:29.064Z,100.00
2022-09-04T02:15:35.523Z,100.00
2022-09-04T02:18:17.438Z,100.00
2022-09-04T02:20:56.674Z,100.00
2022-09-04T02:23:36.826Z,100.00
2022-09-04T02:26:26.796Z,100.00
2022-09-04T02:29:00.059Z,100.00
2022-09-04T02:31:41.615Z,100.00
2022-09-04T02:34:29.426Z,100.00
2022-09-04T02:37:10.102Z,100.00
2022-09-04T02:40:00.883Z,100.00
2022-09-04T02:42:39.824Z,100.00
2022-09-04T02:45:07.424Z,100.00
2022-09-04T02:47:38.596Z,100.00
2022-09-04T02:50:39.214Z,100.00
2022-09-04T02:53:29.855Z,100.00
2022-09-04T02:56:26.949Z,100.00
2022-09-04T02:59:03.482Z,100.00
2022-09-04T03:01:36.415Z,100.00
2022-09-04T03:04:22.910Z,100.00
2022-09-04T03:06:51.688Z,100.00
2022-09-04T03:09:27.619Z,100.00
2022-09-04T03:12:03.802Z,100.00
2022-09-04T03:14:39.945Z,100.00
2022-09-04T03:17:11.784Z,100.00
2022-09-04T03:20:00.047Z,100.00
2022-09-04T03:22:40.183Z,100.00
2022-09-04T03:25:23.120Z,100.00
2022-09-04T03:27:49.796Z,100.00
2022-09-04T03:30:17.710Z,100.00
2022-09-04T03:32:45.405Z,100.00
2022-09-04T03:35:42.621Z,100.00
2022-09-04T03:38:24.643Z,100.00
2022-09-04T03:41:08.581Z,100.00
2022-09-04T03:43:53.711Z,100.00
2022-09-04T03:46:36.589Z,100.00
2022-09-04T03:49:18.636Z,100.00
2022-09-04T03:52:01.541Z,100.00
2022-09-04T03:54:29.149Z,100.00
2022-09-04T03:57:08.905Z,100.00
2022-09-04T03:59:50.149Z,100.00
2022-09-04T04:02:16.745Z,100.00
2022-09-04T04:05:00.345Z,100.00
2022-09-04T04:07:26.988Z,100.00
2022-09-04T04:10:09.812Z,100.00
2022-09-04T04:12:52.889Z,100.00
2022-09-04T04:15:44.193Z,100.00
2022-09-04T04:18:36.225Z,100.00
2022-09-04T04:21:19.096Z,100.00
2022-09-04T04:23:59.843Z,100.00
2022-09-04T04:26:50.641Z,100.00
2022-09-04T04:29:39.733Z,100.00
2022-09-04T04:32:11.387Z,100.00
2022-09-04T04:35:08.832Z,100.00
2022-09-04T04:37:51.780Z,100.00
2022-09-04T04:40:47.512Z,100.00
2022-09-04T04:43:15.161Z,100.00
2022-09-04T04:45:55.907Z,100.00
2022-09-04T04:48:54.075Z,100.00
2022-09-04T04:51:39.712Z,100.00
2022-09-04T04:54:34.871Z,100.00
2022-09-04T04:57:26.928Z,100.00
2022-09-04T05:00:09.093Z,100.00
2022-09-04T05:02:50.676Z,100.00
2022-09-04T05:05:47.836Z,100.00
2022-09-04T05:08:44.976Z,100.00
2022-09-04T05:11:37.667Z,100.00
2022-09-04T05:14:14.141Z,100.00
2022-09-04T05:17:10.957Z,100.00
2022-09-04T05:19:47.453Z,100.00
2022-09-04T05:22:35.257Z,100.00
2022-09-04T05:25:35.442Z,100.00
2022-09-04T05:28:33.088Z,100.00
2022-09-04T05:31:23.027Z,100.00
2022-09-04T05:34:09.895Z,100.00
2022-09-04T05:36:37.474Z,100.00
2022-09-04T05:39:22.914Z,100.00
2022-09-04T05:42:06.776Z,100.00
2022-09-04T05:44:48.958Z,100.00
2022-09-04T05:47:43.644Z,100.00
2022-09-04T05:50:30.130Z,100.00
2022-09-04T05:53:19.962Z,100.00
2022-09-04T05:56:02.826Z,100.00
2022-09-04T05:58:59.912Z,100.00
2022-09-04T06:01:54.035Z,100.00
2022-09-04T06:04:35.885Z,100.00
2022-09-04T06:07:23.379Z,100.00
2022-09-04T06:10:14.268Z,100.00
2022-09-04T06:13:13.663Z,100.00
2022-09-04T06:16:04.155Z,100.00
2022-09-04T06:18:36.373Z,100.00
2022-09-04T06:21:35.443Z,100.00
2022-09-04T06:24:17.425Z,100.00
2022-09-04T06:26:53.391Z,100.00
2022-09-04T06:29:28.788Z,100.00
2022-09-04T06:32:21.591Z,100.00
2022-09-04T06:35:04.536Z,100.00
2022-09-04T06:37:51.788Z,100.00
2022-09-04T06:40:35.524Z,100.00
2022-09-04T06:43:22.068Z,100.00
2022-09-04T06:46:16.403Z,100.00
2022-09-04T06:49:13.772Z,100.00
2022-09-04T06:51:48.360Z,100.00
2022-09-04T06:54:27.438Z,100.00
2022-09-04T06:56:59.862Z,100.00
2022-09-04T06:59:38.690Z,100.00
2022-09-04T07:02:20.521Z,100.00
2022-09-04T07:05:04.351Z,100.00
2022-09-04T07:07:32.019Z,100.00
2022-09-04T07:10:10.554Z,100.00
2022-09-04T07:12:55.394Z,100.00
2022-09-04T07:15:41.959Z,100.00
2022-09-04T07:18:08.538Z,100.00
2022-09-04T07:20:48.252Z,100.00
2022-09-04T07:23:53.376Z,100.00
2022-09-04T07:26:27.218Z,100.00
2022-09-04T07:28:59.971Z,100.00
2022-09-04T07:31:38.556Z,100.00
2022-09-04T07:34:06.259Z,100.00
2022-09-04T07:36:48.278Z,100.00
2022-09-04T07:39:36.046Z,100.00
2022-09-04T07:42:20.708Z,100.00
2022-09-04T07:44:54.714Z,100.00
2022-09-04T07:47:44.899Z,100.00
2022-09-04T07:50:22.218Z,100.00
2022-09-04T07:53:13.685Z,100.00
2022-09-04T07:55:52.932Z,100.00
2022-09-04T07:58:28.331Z,100.00
2022-09-04T08:01:23.275Z,100.00
2022-09-04T08:04:25.140Z,100.00
2022-09-04T08:06:59.270Z,100.00
2022-09-04T08:09:46.798Z,100.00
2022-09-04T08:12:33.503Z,100.00
2022-09-04T08:15:15.893Z,100.00
2022-09-04T08:18:11.881Z,100.00
2022-09-04T08:20:53.791Z,100.00
2022-09-04T08:23:24.582Z,100.00
2022-09-04T08:26:04.676Z,100.00
2022-09-04T08:28:57.255Z,100.00
2022-09-04T08:31:38.147Z,100.00
2022-09-04T08:34:40.374Z,100.00
2022-09-04T08:37:13.644Z,100.00
2022-09-04T08:40:05.123Z,100.00
2022-09-04T08:43:04.101Z,100.00
2022-09-04T08:45:56.845Z,100.00
2022-09-04T08:48:54.050Z,100.00
2022-09-04T08:51:37.701Z,100.00
2022-09-04T08:54:33.572Z,100.00
2022-09-04T08:57:31.228Z,100.00
2022-09-04T09:00:16.152Z,100.00
2022-09-04T09:03:17.834Z,100.00
2022-09-04T09:06:19.695Z,100.00
2022-09-04T09:09:02.680Z,100.00
2022-09-04T09:11:59.828Z,100.00
2022-09-04T09:14:46.233Z,100.00
2022-09-04T09:17:16.984Z,100.00
2022-09-04T09:19:59.882Z,100.00
2022-09-04T09:22:27.572Z,100.00
2022-09-04T09:25:20.895Z,100.00
2022-09-04T09:28:03.221Z,100.00
2022-09-04T09:30:51.162Z,100.00
2022-09-04T09:33:21.682Z,100.00
2022-09-04T09:36:20.243Z,100.00
2022-09-04T09:38:58.108Z,100.00
2022-09-04T09:41:45.289Z,100.00
2022-09-04T09:44:27.182Z,100.00
2022-09-04T09:47:28.548Z,100.00
2022-09-04T09:50:16.173Z,100.00
2022-09-04T09:53:13.246Z,100.00
2022-09-04T09:55:59.724Z,100.00
2022-09-04T09:58:56.883Z,100.00
2022-09-04T10:01:24.735Z,99.33
2022-09-04T10:04:21.620Z,99.90
2022-09-04T10:07:03.543Z,97.85
2022-09-04T10:09:30.373Z,96.05
2022-09-04T10:12:28.274Z,94.85
2022-09-04T10:14:56.043Z,95.03
2022-09-04T10:17:39.004Z,96.80
2022-09-04T10:20:23.391Z,94.71
2022-09-04T10:23:07.706Z,93.86
2022-09-04T10:25:49.729Z,97.23
2022-09-04T10:28:16.610Z,94.62
2022-09-04T10:31:03.203Z,95.52
2022-09-04T10:33:48.841Z,90.16
2022-09-04T10:36:40.797Z,91.77
2022-09-04T10:39:23.845Z,89.77
2022-09-04T10:42:06.145Z,90.48
2022-09-04T10:44:44.239Z,92.12
2022-09-04T10:47:11.843Z,92.60
2022-09-04T10:49:50.589Z,91.47
2022-09-04T10:52:32.523Z,92.67
2022-09-04T10:54:59.622Z,91.90
2022-09-04T10:57:57.176Z,90.94
2022-09-04T11:00:50.115Z,89.51
2022-09-04T11:03:27.922Z,87.65
2022-09-04T11:06:25.905Z,86.37
2022-09-04T11:09:22.005Z,84.16
2022-09-04T11:11:52.835Z,86.51
2022-09-04T11:14:20.672Z,85.10
2022-09-04T11:17:17.726Z,82.79
2022-09-04T11:20:26.131Z,83.82
2022-09-04T11:23:22.115Z,81.50
2022-09-04T11:26:20.784Z,84.16
2022-09-04T11:28:56.040Z,85.65
2022-09-04T11:31:22.816Z,84.63
2022-09-04T11:34:26.328Z,85.36
2022-09-04T11:37:09.147Z,83.31
2022-09-04T11:40:04.396Z,85.15
2022-09-04T11:42:41.296Z,82.41
2022-09-04T11:45:36.571Z,82.13
2022-09-04T11:48:18.766Z,82.57
2022-09-04T11:51:09.696Z,80.76
2022-09-04T11:53:56.221Z,79.68
2022-09-04T11:56:38.058Z,80.37
2022-09-04T11:59:05.760Z,81.26
2022-09-04T12:01:32.373Z,78.76
2022-09-04T12:04:29.599Z,76.09
2022-09-04T12:07:13.589Z,78.34
2022-09-04T12:10:10.965Z,79.77
2022-09-04T12:13:15.077Z,80.04
2022-09-04T12:15:58.486Z,77.06
2022-09-04T12:18:36.972Z,78.16
2022-09-04T12:21:35.852Z,77.61
2022-09-04T12:24:17.825Z,76.95
2022-09-04T12:26:52.132Z,77.98
2022-09-04T12:29:36.039Z,76.90
2022-09-04T12:32:30.934Z,78.26
2022-09-04T12:34:59.570Z,78.61
2022-09-04T12:37:46.072Z,79.72
2022-09-04T12:40:34.522Z,80.26
2022-09-04T12:43:16.638Z,78.61
2022-09-04T12:45:49.040Z,78.05
2022-09-04T12:48:47.779Z,75.68
2022-09-04T12:51:21.221Z,76.28
2022-09-04T12:53:59.082Z,76.39
2022-09-04T12:56:26.315Z,77.15
2022-09-04T12:58:53.973Z,77.47
2022-09-04T13:01:44.167Z,74.29
2022-09-04T13:04:33.820Z,74.61
2022-09-04T13:07:22.836Z,75.56
2022-09-04T13:10:17.781Z,75.89
2022-09-04T13:12:53.410Z,76.56
2022-09-04T13:15:41.538Z,75.21
2022-09-04T13:18:38.003Z,74.62
2022-09-04T13:21:32.315Z,74.29
2022-09-04T13:24:19.470Z,73.47
2022-09-04T13:27:15.952Z,72.31
2022-09-04T13:30:03.005Z,71.44
2022-09-04T13:32:32.023Z,74.50
2022-09-04T13:35:19.823Z,73.92
2022-09-04T13:38:21.147Z,73.48
2022-09-04T13:41:16.205Z,74.59
2022-09-04T13:44:19.642Z,72.34
2022-09-04T13:47:02.358Z,73.81
2022-09-04T13:49:37.833Z,70.13
2022-09-04T13:52:10.282Z,73.29
2022-09-04T13:54:42.357Z,70.11
2022-09-04T13:57:27.941Z,68.80
2022-09-04T14:00:03.554Z,69.51
2022-09-04T14:02:31.780Z,69.49
2022-09-04T14:05:13.713Z,69.84
2022-09-04T14:07:45.191Z,67.55
2022-09-04T14:10:17.272Z,67.91
2022-09-04T14:13:19.303Z,67.12
2022-09-04T14:15:46.214Z,68.53
2022-09-04T14:18:25.525Z,68.47
2022-09-04T14:20:57.948Z,65.00
2022-09-04T14:23:43.430Z,63.31
2022-09-04T14:26:29.854Z,64.89
2022-09-04T14:29:15.705Z,64.97
2022-09-04T14:31:58.530Z,66.73
2022-09-04T14:34:52.632Z,63.53
2022-09-04T14:37:49.255Z,63.31
2022-09-04T14:40:25.359Z,62.74
2022-09-04T14:43:02.594Z,64.33
2022-09-04T14:46:02.614Z,64.85
2022-09-04T14:48:32.066Z,64.40
2022-09-04T14:51:16.065Z,64.13
2022-09-04T14:53:49.411Z,65.25
2022-09-04T14:56:29.074Z,68.03
2022-09-04T14:59:07.108Z,70.31
2022-09-04T15:01:45.767Z,71.90
2022-09-04T15:04:23.062Z,73.95
2022-09-04T15:07:12.460Z,74.57
2022-09-04T15:09:42.797Z,75.55
2022-09-04T15:12:25.754Z,75.71
2022-09-04T15:15:05.538Z,76.38
2022-09-04T15:17:35.169Z,75.98
2022-09-04T15:20:13.380Z,76.57
2022-09-04T15:22:53.438Z,76.52
2022-09-04T15:25:58.648Z,77.50
2022-09-04T15:28:34.530Z,76.76
2022-09-04T15:31:15.434Z,77.84
2022-09-04T15:33:44.268Z,78.90
2022-09-04T15:36:15.964Z,79.25
2022-09-04T15:39:00.099Z,80.10
2022-09-04T15:41:45.019Z,80.63
2022-09-04T15:44:30.114Z,81.06
2022-09-04T15:47:14.172Z,82.12
2022-09-04T15:49:51.428Z,81.26
2022-09-04T15:52:24.212Z,81.20
2022-09-04T15:55:18.777Z,81.26
2022-09-04T15:57:57.433Z,81.25
2022-09-04T16:00:27.327Z,82.11
2022-09-04T16:03:02.390Z,81.90
2022-09-04T16:05:44.715Z,82.54
2022-09-04T16:08:26.652Z,82.40
2022-09-04T16:11:01.789Z,83.75
2022-09-04T16:13:28.991Z,82.92
2022-09-04T16:16:04.489Z,82.14
2022-09-04T16:18:49.598Z,81.85
2022-09-04T16:21:21.394Z,82.57
2022-09-04T16:23:49.803Z,82.99
2022-09-04T16:26:24.143Z,86.85
2022-09-04T16:28:58.806Z,87.00
2022-09-04T16:31:31.132Z,87.15
2022-09-04T16:34:02.811Z,86.03
2022-09-04T16:36:40.256Z,84.83
2022-09-04T16:39:14.397Z,84.66
2022-09-04T16:42:00.658Z,86.49
2022-09-04T16:44:38.518Z,84.82
2022-09-04T16:47:16.215Z,83.99
2022-09-04T16:49:58.074Z,83.71
2022-09-04T16:53:12.722Z,83.94
2022-09-04T16:56:07.328Z,85.42
2022-09-04T16:58:43.965Z,84.97
2022-09-04T17:01:30.997Z,84.67
2022-09-04T17:04:14.420Z,84.50
2022-09-04T17:07:12.206Z,84.79
2022-09-04T17:09:58.778Z,84.83
2022-09-04T17:12:33.762Z,85.66
2022-09-04T17:15:21.544Z,86.11
2022-09-04T17:17:51.082Z,86.87
2022-09-04T17:20:50.271Z,86.38
2022-09-04T17:28:59.673Z,87.04
2022-09-04T17:29:13.593Z,87.98
2022-09-04T17:29:38.333Z,87.58
2022-09-04T17:33:46.138Z,88.96
2022-09-04T17:40:33.132Z,88.66
2022-09-04T17:40:55.089Z,90.65
2022-09-04T17:41:58.179Z,91.03
2022-09-04T17:44:46.234Z,91.21
2022-09-04T17:47:41.557Z,91.30
2022-09-04T17:50:16.479Z,92.54
2022-09-04T17:53:00.778Z,93.00
2022-09-04T17:55:38.817Z,92.36
2022-09-04T17:58:44.509Z,94.40
2022-09-04T18:01:17.672Z,94.68
2022-09-04T18:04:21.424Z,95.32
2022-09-04T18:07:33.513Z,95.95
2022-09-04T18:10:01.732Z,95.78
2022-09-04T18:12:51.969Z,96.32
2022-09-04T18:15:34.336Z,97.09
2022-09-04T18:18:16.555Z,97.12
2022-09-04T18:20:51.647Z,96.38
2022-09-04T18:23:24.453Z,97.20
2022-09-04T18:25:57.603Z,97.85
2022-09-04T18:28:25.558Z,97.92
2022-09-04T18:37:07.541Z,98.52
2022-09-04T18:37:21.856Z,99.10
2022-09-04T18:37:45.660Z,98.88
2022-09-04T18:39:57.336Z,98.93
2022-09-04T18:50:31.930Z,99.03
2022-09-04T18:50:43.186Z,99.92
2022-09-04T18:50:46.367Z,100.00
2022-09-04T18:51:29.618Z,100.00
2022-09-04T18:54:01.478Z,100.00
2022-09-04T18:56:32.990Z,100.00
2022-09-04T18:59:12.598Z,100.00
2022-09-04T19:01:58.004Z,100.00
2022-09-04T19:04:41.528Z,100.00
2022-09-04T19:07:31.969Z,100.00
2022-09-04T19:10:09.307Z,100.00
2022-09-04T19:12:57.883Z,100.00
2022-09-04T19:15:36.811Z,100.00
2022-09-04T19:18:13.300Z,100.00
2022-09-04T19:20:55.355Z,100.00
2022-09-04T19:23:32.620Z,100.00
2022-09-04T19:26:07.643Z,100.00
2022-09-04T19:28:57.163Z,100.00
2022-09-04T19:31:54.548Z,100.00
2022-09-04T19:34:40.267Z,100.00
2022-09-04T19:38:11.015Z,100.00
2022-09-04T19:45:59.127Z,100.00
2022-09-04T19:46:03.050Z,100.00
2022-09-04T19:46:29.478Z,100.00
2022-09-04T19:51:09.374Z,100.00
2022-09-04T19:53:31.896Z,100.00
2022-09-04T19:55:23.659Z,100.00
2022-09-04T19:57:53.857Z,100.00
2022-09-04T20:00:42.716Z,100.00
2022-09-04T20:03:31.223Z,100.00
2022-09-04T20:06:20.062Z,100.00
2022-09-04T20:08:56.671Z,100.00
2022-09-04T20:11:35.722Z,100.00
2022-09-04T20:14:19.379Z,100.00
2022-09-04T20:17:15.938Z,100.00
2022-09-04T20:19:48.556Z,100.00
2022-09-04T20:22:27.200Z,100.00
2022-09-04T20:25:04.212Z,100.00
2022-09-04T20:27:41.075Z,100.00
2022-09-04T20:30:12.112Z,100.00
2022-09-04T20:33:01.710Z,100.00
2022-09-04T20:35:40.379Z,100.00
2022-09-04T20:38:26.098Z,100.00
2022-09-04T20:41:11.333Z,100.00
2022-09-04T20:44:03.523Z,100.00
2022-09-04T20:52:41.287Z,100.00
2022-09-04T20:52:50.861Z,100.00
2022-09-04T20:52:58.244Z,100.00
2022-09-04T20:55:38.622Z,100.00
2022-09-04T21:03:14.434Z,100.00
2022-09-04T21:03:22.835Z,100.00
2022-09-04T21:05:11.926Z,100.00
2022-09-04T21:07:47.261Z,100.00
2022-09-04T21:10:45.662Z,100.00
2022-09-04T21:13:22.955Z,100.00
2022-09-04T21:15:58.583Z,100.00
2022-09-04T21:18:40.554Z,100.00
2022-09-04T21:21:24.212Z,100.00
2022-09-04T21:24:12.676Z,100.00
2022-09-04T21:26:54.162Z,100.00
2022-09-04T21:29:36.125Z,100.00
2022-09-04T21:32:33.232Z,100.00
2022-09-04T21:35:03.738Z,100.00
2022-09-04T21:37:34.596Z,100.00
2022-09-04T21:40:51.515Z,100.00
2022-09-04T21:43:49.831Z,100.00
2022-09-04T21:46:31.689Z,100.00
2022-09-04T21:48:58.293Z,100.00
2022-09-04T21:51:50.712Z,100.00
2022-09-04T21:54:37.447Z,100.00
2022-09-04T22:02:35.463Z,100.00
2022-09-04T22:02:45.027Z,100.00
2022-09-04T22:03:34.827Z,100.00
2022-09-04T22:06:36.665Z,100.00
2022-09-04T22:13:31.985Z,100.00
2022-09-04T22:13:41.294Z,100.00
2022-09-04T22:15:06.139Z,100.00
2022-09-04T22:17:48.146Z,100.00
2022-09-04T22:20:45.268Z,100.00
2022-09-04T22:23:11.743Z,100.00
2022-09-04T22:26:08.611Z,100.00
2022-09-04T22:28:43.541Z,100.00
2022-09-04T22:31:45.523Z,100.00
2022-09-04T22:34:32.075Z,100.00
2022-09-04T22:37:33.864Z,100.00
2022-09-04T22:40:27.228Z,100.00
2022-09-04T22:43:14.523Z,100.00
2022-09-04T22:46:03.177Z,100.00
2022-09-04T22:48:47.336Z,100.00
2022-09-04T22:51:45.093Z,100.00
2022-09-04T22:54:11.741Z,100.00
2022-09-04T22:56:55.256Z,100.00
2022-09-04T22:59:57.180Z,100.00
2022-09-04T23:03:14.274Z,100.00
2022-09-04T23:05:43.002Z,100.00
2022-09-04T23:13:50.172Z,100.00
2022-09-04T23:13:59.149Z,100.00
2022-09-04T23:14:46.512Z,100.00
2022-09-04T23:17:28.364Z,100.00
2022-09-04T23:26:35.203Z,100.00
2022-09-04T23:26:35.419Z,100.00
2022-09-04T23:26:43.387Z,100.00
2022-09-04T23:29:47.996Z,100.00
2022-09-04T23:32:25.122Z,100.00
2022-09-04T23:35:14.333Z,100.00
2022-09-04T23:38:00.895Z,100.00
2022-09-04T23:40:51.169Z,100.00
2022-09-04T23:43:34.080Z,100.00
2022-09-04T23:46:23.907Z,100.00
2022-09-04T23:48:52.635Z,100.00
2022-09-04T23:51:35.472Z,100.00
2022-09-04T23:54:36.708Z,100.00
2022-09-04T23:57:26.435Z,100.00
2022-09-04T23:59:59.284Z,100.00
